sensor_id;sensor_type;location;lat;lon;timestamp;temperature;humidity
76470;DHT22;65305;52.870;13.660;2023-03-23T00:01:59;8.00;73.00
76470;DHT22;65305;52.870;13.660;2023-03-23T00:04:26;8.00;73.00
76470;DHT22;65305;52.870;13.660;2023-03-23T00:06:55;8.00;73.00
76470;DHT22;65305;52.870;13.660;2023-03-23T00:09:22;8.00;73.00
76470;DHT22;65305;52.870;13.660;2023-03-23T00:11:50;8.00;73.00
76470;DHT22;65305;52.870;13.660;2023-03-23T00:14:17;8.00;73.00
76470;DHT22;65305;52.870;13.660;2023-03-23T00:16:48;8.00;73.00
76470;DHT22;65305;52.870;13.660;2023-03-23T00:19:16;8.00;73.00
76470;DHT22;65305;52.870;13.660;2023-03-23T00:21:46;8.00;73.00
76470;DHT22;65305;52.870;13.660;2023-03-23T00:24:16;8.00;73.00
76470;DHT22;65305;52.870;13.660;2023-03-23T00:26:46;8.00;72.90
76470;DHT22;65305;52.870;13.660;2023-03-23T00:29:14;8.00;73.00
76470;DHT22;65305;52.870;13.660;2023-03-23T00:31:42;8.00;73.00
76470;DHT22;65305;52.870;13.660;2023-03-23T00:34:19;8.00;72.90
76470;DHT22;65305;52.870;13.660;2023-03-23T00:36:49;8.00;72.90
76470;DHT22;65305;52.870;13.660;2023-03-23T00:39:16;8.00;72.90
76470;DHT22;65305;52.870;13.660;2023-03-23T00:41:43;8.00;73.00
76470;DHT22;65305;52.870;13.660;2023-03-23T00:44:10;8.00;73.00
76470;DHT22;65305;52.870;13.660;2023-03-23T00:46:44;8.00;72.90
76470;DHT22;65305;52.870;13.660;2023-03-23T00:49:15;8.00;72.90
76470;DHT22;65305;52.870;13.660;2023-03-23T00:51:42;8.00;72.90
76470;DHT22;65305;52.870;13.660;2023-03-23T00:54:09;8.00;72.90
76470;DHT22;65305;52.870;13.660;2023-03-23T00:56:36;8.00;72.90
76470;DHT22;65305;52.870;13.660;2023-03-23T00:59:03;8.00;72.90
76470;DHT22;65305;52.870;13.660;2023-03-23T01:01:29;8.00;72.90
76470;DHT22;65305;52.870;13.660;2023-03-23T01:03:57;8.00;72.90
76470;DHT22;65305;52.870;13.660;2023-03-23T01:06:30;8.00;72.90
76470;DHT22;65305;52.870;13.660;2023-03-23T01:08:58;8.00;72.90
76470;DHT22;65305;52.870;13.660;2023-03-23T01:11:24;8.00;72.90
76470;DHT22;65305;52.870;13.660;2023-03-23T01:13:51;8.00;72.90
76470;DHT22;65305;52.870;13.660;2023-03-23T01:16:18;8.00;72.90
76470;DHT22;65305;52.870;13.660;2023-03-23T01:18:44;8.00;72.90
76470;DHT22;65305;52.870;13.660;2023-03-23T01:21:12;8.00;72.90
76470;DHT22;65305;52.870;13.660;2023-03-23T01:23:40;8.00;72.90
76470;DHT22;65305;52.870;13.660;2023-03-23T01:26:07;8.00;72.90
76470;DHT22;65305;52.870;13.660;2023-03-23T01:28:34;8.00;72.90
76470;DHT22;65305;52.870;13.660;2023-03-23T01:31:02;8.00;72.90
76470;DHT22;65305;52.870;13.660;2023-03-23T01:33:29;8.00;72.90
76470;DHT22;65305;52.870;13.660;2023-03-23T01:35:57;8.00;72.90
76470;DHT22;65305;52.870;13.660;2023-03-23T01:38:23;8.00;72.90
76470;DHT22;65305;52.870;13.660;2023-03-23T01:40:50;8.00;72.90
76470;DHT22;65305;52.870;13.660;2023-03-23T01:43:16;8.00;72.90
76470;DHT22;65305;52.870;13.660;2023-03-23T01:45:43;8.00;72.90
76470;DHT22;65305;52.870;13.660;2023-03-23T01:50:48;8.00;72.90
76470;DHT22;65305;52.870;13.660;2023-03-23T01:53:17;8.00;72.90
76470;DHT22;65305;52.870;13.660;2023-03-23T01:55:44;8.00;72.90
76470;DHT22;65305;52.870;13.660;2023-03-23T01:58:17;8.00;72.90
76470;DHT22;65305;52.870;13.660;2023-03-23T02:00:47;8.00;72.90
76470;DHT22;65305;52.870;13.660;2023-03-23T02:03:14;8.00;72.90
76470;DHT22;65305;52.870;13.660;2023-03-23T02:05:43;8.00;72.90
76470;DHT22;65305;52.870;13.660;2023-03-23T02:08:10;8.00;72.90
76470;DHT22;65305;52.870;13.660;2023-03-23T02:10:37;8.00;72.90
76470;DHT22;65305;52.870;13.660;2023-03-23T02:13:04;8.00;72.90
76470;DHT22;65305;52.870;13.660;2023-03-23T02:15:43;8.00;72.90
76470;DHT22;65305;52.870;13.660;2023-03-23T02:20:54;8.00;72.90
76470;DHT22;65305;52.870;13.660;2023-03-23T02:34:17;8.00;72.90
76470;DHT22;65305;52.870;13.660;2023-03-23T02:37:06;8.00;72.90
76470;DHT22;65305;52.870;13.660;2023-03-23T02:39:35;8.00;72.90
76470;DHT22;65305;52.870;13.660;2023-03-23T02:42:05;8.00;72.90
76470;DHT22;65305;52.870;13.660;2023-03-23T02:44:32;8.00;72.90
76470;DHT22;65305;52.870;13.660;2023-03-23T02:47:00;8.00;72.90
76470;DHT22;65305;52.870;13.660;2023-03-23T02:49:28;8.00;72.90
76470;DHT22;65305;52.870;13.660;2023-03-23T02:51:58;8.00;72.90
76470;DHT22;65305;52.870;13.660;2023-03-23T02:54:25;8.00;72.90
76470;DHT22;65305;52.870;13.660;2023-03-23T02:56:53;8.00;72.80
76470;DHT22;65305;52.870;13.660;2023-03-23T02:59:20;8.00;72.90
76470;DHT22;65305;52.870;13.660;2023-03-23T03:01:56;8.00;72.90
76470;DHT22;65305;52.870;13.660;2023-03-23T03:04:24;8.00;72.80
76470;DHT22;65305;52.870;13.660;2023-03-23T03:07:12;8.00;72.90
76470;DHT22;65305;52.870;13.660;2023-03-23T03:09:52;8.00;72.80
76470;DHT22;65305;52.870;13.660;2023-03-23T03:12:21;8.00;72.90
76470;DHT22;65305;52.870;13.660;2023-03-23T03:17:24;8.00;72.80
76470;DHT22;65305;52.870;13.660;2023-03-23T03:19:56;8.00;72.80
76470;DHT22;65305;52.870;13.660;2023-03-23T03:22:24;8.00;72.80
76470;DHT22;65305;52.870;13.660;2023-03-23T03:24:55;8.00;72.80
76470;DHT22;65305;52.870;13.660;2023-03-23T03:27:23;8.00;72.80
76470;DHT22;65305;52.870;13.660;2023-03-23T03:29:54;8.00;72.80
76470;DHT22;65305;52.870;13.660;2023-03-23T03:32:23;8.00;72.80
76470;DHT22;65305;52.870;13.660;2023-03-23T03:34:53;8.00;72.70
76470;DHT22;65305;52.870;13.660;2023-03-23T03:37:20;8.00;72.80
76470;DHT22;65305;52.870;13.660;2023-03-23T03:39:46;8.00;72.80
76470;DHT22;65305;52.870;13.660;2023-03-23T03:42:13;8.00;72.70
76470;DHT22;65305;52.870;13.660;2023-03-23T03:44:39;8.00;72.70
76470;DHT22;65305;52.870;13.660;2023-03-23T03:47:06;8.00;72.70
76470;DHT22;65305;52.870;13.660;2023-03-23T03:49:33;8.00;72.70
76470;DHT22;65305;52.870;13.660;2023-03-23T03:51:59;8.00;72.70
76470;DHT22;65305;52.870;13.660;2023-03-23T03:54:26;8.00;72.70
76470;DHT22;65305;52.870;13.660;2023-03-23T03:56:52;8.00;72.70
76470;DHT22;65305;52.870;13.660;2023-03-23T03:59:24;8.00;72.70
76470;DHT22;65305;52.870;13.660;2023-03-23T04:01:52;8.00;72.70
76470;DHT22;65305;52.870;13.660;2023-03-23T04:04:20;8.00;72.70
76470;DHT22;65305;52.870;13.660;2023-03-23T04:06:48;8.00;72.70
76470;DHT22;65305;52.870;13.660;2023-03-23T04:09:14;8.00;72.80
76470;DHT22;65305;52.870;13.660;2023-03-23T04:11:41;8.00;72.70
76470;DHT22;65305;52.870;13.660;2023-03-23T04:14:08;8.00;72.70
76470;DHT22;65305;52.870;13.660;2023-03-23T04:16:34;8.00;72.70
76470;DHT22;65305;52.870;13.660;2023-03-23T04:19:01;8.00;72.70
76470;DHT22;65305;52.870;13.660;2023-03-23T04:21:28;8.00;72.70
76470;DHT22;65305;52.870;13.660;2023-03-23T04:23:57;8.00;72.70
76470;DHT22;65305;52.870;13.660;2023-03-23T04:26:27;8.00;72.70
76470;DHT22;65305;52.870;13.660;2023-03-23T04:28:55;8.00;72.70
76470;DHT22;65305;52.870;13.660;2023-03-23T04:31:22;8.00;72.70
76470;DHT22;65305;52.870;13.660;2023-03-23T04:33:50;8.00;72.70
76470;DHT22;65305;52.870;13.660;2023-03-23T04:36:18;8.00;72.70
76470;DHT22;65305;52.870;13.660;2023-03-23T04:38:44;8.00;72.70
76470;DHT22;65305;52.870;13.660;2023-03-23T04:41:14;8.00;72.70
76470;DHT22;65305;52.870;13.660;2023-03-23T04:43:43;8.00;72.70
76470;DHT22;65305;52.870;13.660;2023-03-23T04:46:14;8.00;72.70
76470;DHT22;65305;52.870;13.660;2023-03-23T04:48:44;8.00;72.70
76470;DHT22;65305;52.870;13.660;2023-03-23T04:51:11;8.00;72.70
76470;DHT22;65305;52.870;13.660;2023-03-23T04:53:50;8.00;72.60
76470;DHT22;65305;52.870;13.660;2023-03-23T04:56:17;8.00;72.70
76470;DHT22;65305;52.870;13.660;2023-03-23T04:59:03;8.00;72.70
76470;DHT22;65305;52.870;13.660;2023-03-23T05:04:26;8.00;72.60
76470;DHT22;65305;52.870;13.660;2023-03-23T05:07:05;8.00;72.60
76470;DHT22;65305;52.870;13.660;2023-03-23T05:09:46;8.00;72.60
76470;DHT22;65305;52.870;13.660;2023-03-23T05:12:20;8.00;72.60
76470;DHT22;65305;52.870;13.660;2023-03-23T05:17:30;8.00;72.60
76470;DHT22;65305;52.870;13.660;2023-03-23T05:20:18;8.00;72.60
76470;DHT22;65305;52.870;13.660;2023-03-23T05:22:48;8.00;72.60
76470;DHT22;65305;52.870;13.660;2023-03-23T05:25:21;8.00;72.60
76470;DHT22;65305;52.870;13.660;2023-03-23T05:27:51;8.00;72.60
76470;DHT22;65305;52.870;13.660;2023-03-23T05:36:35;8.00;72.60
76470;DHT22;65305;52.870;13.660;2023-03-23T05:39:16;8.00;72.60
76470;DHT22;65305;52.870;13.660;2023-03-23T05:45:03;8.00;72.60
76470;DHT22;65305;52.870;13.660;2023-03-23T05:47:33;8.00;72.50
76470;DHT22;65305;52.870;13.660;2023-03-23T05:50:00;8.00;72.50
76470;DHT22;65305;52.870;13.660;2023-03-23T05:52:27;8.00;72.50
76470;DHT22;65305;52.870;13.660;2023-03-23T05:54:53;8.00;72.50
76470;DHT22;65305;52.870;13.660;2023-03-23T05:57:23;8.00;72.50
76470;DHT22;65305;52.870;13.660;2023-03-23T05:59:50;8.00;72.50
76470;DHT22;65305;52.870;13.660;2023-03-23T06:02:17;8.00;72.50
76470;DHT22;65305;52.870;13.660;2023-03-23T06:04:43;8.00;72.50
76470;DHT22;65305;52.870;13.660;2023-03-23T06:07:13;8.00;72.50
76470;DHT22;65305;52.870;13.660;2023-03-23T06:09:43;8.00;72.50
76470;DHT22;65305;52.870;13.660;2023-03-23T06:12:10;8.00;72.50
76470;DHT22;65305;52.870;13.660;2023-03-23T06:14:37;8.00;72.50
76470;DHT22;65305;52.870;13.660;2023-03-23T06:17:04;8.00;72.50
76470;DHT22;65305;52.870;13.660;2023-03-23T06:19:31;8.00;72.50
76470;DHT22;65305;52.870;13.660;2023-03-23T06:22:00;8.00;72.50
76470;DHT22;65305;52.870;13.660;2023-03-23T06:24:28;8.00;72.50
76470;DHT22;65305;52.870;13.660;2023-03-23T06:26:55;8.00;72.50
76470;DHT22;65305;52.870;13.660;2023-03-23T06:29:21;8.00;72.50
76470;DHT22;65305;52.870;13.660;2023-03-23T06:31:48;8.00;72.50
76470;DHT22;65305;52.870;13.660;2023-03-23T06:34:15;8.00;72.50
76470;DHT22;65305;52.870;13.660;2023-03-23T06:36:42;8.00;72.50
76470;DHT22;65305;52.870;13.660;2023-03-23T06:39:10;8.00;72.50
76470;DHT22;65305;52.870;13.660;2023-03-23T06:41:36;8.00;72.40
76470;DHT22;65305;52.870;13.660;2023-03-23T06:44:03;8.00;72.40
76470;DHT22;65305;52.870;13.660;2023-03-23T06:46:33;8.00;72.40
76470;DHT22;65305;52.870;13.660;2023-03-23T06:49:00;8.00;72.50
76470;DHT22;65305;52.870;13.660;2023-03-23T06:51:26;8.00;72.50
76470;DHT22;65305;52.870;13.660;2023-03-23T06:53:53;8.00;72.40
76470;DHT22;65305;52.870;13.660;2023-03-23T06:56:20;8.00;72.40
76470;DHT22;65305;52.870;13.660;2023-03-23T06:58:46;8.00;72.40
76470;DHT22;65305;52.870;13.660;2023-03-23T07:01:13;8.00;72.50
76470;DHT22;65305;52.870;13.660;2023-03-23T07:03:41;8.00;72.40
76470;DHT22;65305;52.870;13.660;2023-03-23T07:06:09;8.00;72.50
76470;DHT22;65305;52.870;13.660;2023-03-23T07:08:35;8.00;72.50
76470;DHT22;65305;52.870;13.660;2023-03-23T07:11:02;8.00;72.50
76470;DHT22;65305;52.870;13.660;2023-03-23T07:13:29;8.00;72.40
76470;DHT22;65305;52.870;13.660;2023-03-23T07:15:55;8.00;72.40
76470;DHT22;65305;52.870;13.660;2023-03-23T07:18:23;8.00;72.40
76470;DHT22;65305;52.870;13.660;2023-03-23T07:20:50;8.00;72.50
76470;DHT22;65305;52.870;13.660;2023-03-23T07:23:17;8.00;72.50
76470;DHT22;65305;52.870;13.660;2023-03-23T07:25:44;8.00;72.50
76470;DHT22;65305;52.870;13.660;2023-03-23T07:28:11;8.00;72.50
76470;DHT22;65305;52.870;13.660;2023-03-23T07:30:38;8.00;72.50
76470;DHT22;65305;52.870;13.660;2023-03-23T07:33:05;8.00;72.50
76470;DHT22;65305;52.870;13.660;2023-03-23T07:35:32;8.00;72.50
76470;DHT22;65305;52.870;13.660;2023-03-23T07:37:58;8.00;72.50
76470;DHT22;65305;52.870;13.660;2023-03-23T07:40:26;8.00;72.50
76470;DHT22;65305;52.870;13.660;2023-03-23T07:42:56;8.00;72.50
76470;DHT22;65305;52.870;13.660;2023-03-23T07:45:23;8.00;72.60
76470;DHT22;65305;52.870;13.660;2023-03-23T07:47:49;8.00;72.60
76470;DHT22;65305;52.870;13.660;2023-03-23T07:50:16;8.00;72.60
76470;DHT22;65305;52.870;13.660;2023-03-23T07:52:47;8.00;72.60
76470;DHT22;65305;52.870;13.660;2023-03-23T07:55:14;8.00;72.60
76470;DHT22;65305;52.870;13.660;2023-03-23T07:57:44;8.00;72.60
76470;DHT22;65305;52.870;13.660;2023-03-23T08:00:15;8.00;72.60
76470;DHT22;65305;52.870;13.660;2023-03-23T08:02:48;8.00;72.60
76470;DHT22;65305;52.870;13.660;2023-03-23T08:05:31;8.00;72.60
76470;DHT22;65305;52.870;13.660;2023-03-23T08:08:03;8.00;72.60
76470;DHT22;65305;52.870;13.660;2023-03-23T08:10:52;8.00;72.60
76470;DHT22;65305;52.870;13.660;2023-03-23T08:13:31;8.00;72.60
76470;DHT22;65305;52.870;13.660;2023-03-23T08:19:03;8.00;72.80
76470;DHT22;65305;52.870;13.660;2023-03-23T08:24:23;8.00;72.90
76470;DHT22;65305;52.870;13.660;2023-03-23T08:45:36;8.00;72.90
76470;DHT22;65305;52.870;13.660;2023-03-23T08:51:26;8.00;72.90
76470;DHT22;65305;52.870;13.660;2023-03-23T09:07:29;8.00;73.00
76470;DHT22;65305;52.870;13.660;2023-03-23T09:18:52;8.00;73.10
76470;DHT22;65305;52.870;13.660;2023-03-23T09:21:23;8.00;73.00
76470;DHT22;65305;52.870;13.660;2023-03-23T09:23:55;8.00;73.00
76470;DHT22;65305;52.870;13.660;2023-03-23T09:26:33;8.00;73.00
76470;DHT22;65305;52.870;13.660;2023-03-23T09:32:02;8.00;73.20
76470;DHT22;65305;52.870;13.660;2023-03-23T09:34:29;8.00;73.10
76470;DHT22;65305;52.870;13.660;2023-03-23T09:36:55;8.00;73.20
76470;DHT22;65305;52.870;13.660;2023-03-23T09:39:22;8.00;73.20
76470;DHT22;65305;52.870;13.660;2023-03-23T09:45:02;8.00;73.10
76470;DHT22;65305;52.870;13.660;2023-03-23T09:50:23;8.00;73.10
76470;DHT22;65305;52.870;13.660;2023-03-23T09:55:29;8.00;72.80
76470;DHT22;65305;52.870;13.660;2023-03-23T10:01:06;8.00;72.80
76470;DHT22;65305;52.870;13.660;2023-03-23T10:03:55;8.00;73.00
76470;DHT22;65305;52.870;13.660;2023-03-23T10:06:19;8.00;73.10
76470;DHT22;65305;52.870;13.660;2023-03-23T10:08:49;8.00;73.10
76470;DHT22;65305;52.870;13.660;2023-03-23T10:11:44;8.00;73.10
76470;DHT22;65305;52.870;13.660;2023-03-23T10:17:36;8.00;73.10
76470;DHT22;65305;52.870;13.660;2023-03-23T10:19:36;8.00;73.10
76470;DHT22;65305;52.870;13.660;2023-03-23T10:22:11;8.00;73.10
76470;DHT22;65305;52.870;13.660;2023-03-23T10:24:56;8.00;73.00
76470;DHT22;65305;52.870;13.660;2023-03-23T10:27:31;8.00;73.00
76470;DHT22;65305;52.870;13.660;2023-03-23T10:30:02;8.00;73.00
76470;DHT22;65305;52.870;13.660;2023-03-23T10:32:39;8.00;73.10
76470;DHT22;65305;52.870;13.660;2023-03-23T10:35:10;8.00;73.20
76470;DHT22;65305;52.870;13.660;2023-03-23T10:37:40;8.00;73.20
76470;DHT22;65305;52.870;13.660;2023-03-23T10:40:13;8.00;73.20
76470;DHT22;65305;52.870;13.660;2023-03-23T10:42:42;8.00;73.20
76470;DHT22;65305;52.870;13.660;2023-03-23T10:45:16;8.00;73.20
76470;DHT22;65305;52.870;13.660;2023-03-23T10:47:46;8.00;73.20
76470;DHT22;65305;52.870;13.660;2023-03-23T10:50:16;8.00;73.20
76470;DHT22;65305;52.870;13.660;2023-03-23T10:52:44;8.00;73.20
76470;DHT22;65305;52.870;13.660;2023-03-23T10:55:12;8.00;73.30
76470;DHT22;65305;52.870;13.660;2023-03-23T10:57:41;8.00;73.30
76470;DHT22;65305;52.870;13.660;2023-03-23T11:02:46;8.00;73.30
76470;DHT22;65305;52.870;13.660;2023-03-23T11:05:18;8.00;73.20
76470;DHT22;65305;52.870;13.660;2023-03-23T11:07:55;8.00;73.20
76470;DHT22;65305;52.870;13.660;2023-03-23T11:12:56;8.00;73.20
76470;DHT22;65305;52.870;13.660;2023-03-23T11:15:28;8.00;73.40
76470;DHT22;65305;52.870;13.660;2023-03-23T11:17:58;8.00;73.30
76470;DHT22;65305;52.870;13.660;2023-03-23T11:20:25;8.00;73.30
76470;DHT22;65305;52.870;13.660;2023-03-23T11:22:52;8.00;73.30
76470;DHT22;65305;52.870;13.660;2023-03-23T11:25:19;8.00;73.40
76470;DHT22;65305;52.870;13.660;2023-03-23T11:27:48;8.00;73.40
76470;DHT22;65305;52.870;13.660;2023-03-23T11:30:23;8.00;73.50
76470;DHT22;65305;52.870;13.660;2023-03-23T11:32:51;8.00;73.50
76470;DHT22;65305;52.870;13.660;2023-03-23T11:35:23;8.00;73.50
76470;DHT22;65305;52.870;13.660;2023-03-23T11:37:55;8.00;73.50
76470;DHT22;65305;52.870;13.660;2023-03-23T11:40:24;8.00;73.50
76470;DHT22;65305;52.870;13.660;2023-03-23T11:53:32;8.00;73.50
76470;DHT22;65305;52.870;13.660;2023-03-23T11:56:09;8.00;73.40
76470;DHT22;65305;52.870;13.660;2023-03-23T11:58:38;8.00;73.40
76470;DHT22;65305;52.870;13.660;2023-03-23T12:01:06;8.00;73.20
76470;DHT22;65305;52.870;13.660;2023-03-23T12:06:10;8.00;73.20
76470;DHT22;65305;52.870;13.660;2023-03-23T12:08:43;8.00;73.30
76470;DHT22;65305;52.870;13.660;2023-03-23T12:11:20;8.00;73.30
76470;DHT22;65305;52.870;13.660;2023-03-23T12:19:13;8.00;73.40
76470;DHT22;65305;52.870;13.660;2023-03-23T12:21:46;8.00;73.50
76470;DHT22;65305;52.870;13.660;2023-03-23T12:32:17;8.00;73.60
76470;DHT22;65305;52.870;13.660;2023-03-23T12:34:52;8.10;73.60
76470;DHT22;65305;52.870;13.660;2023-03-23T12:37:33;8.00;73.50
76470;DHT22;65305;52.870;13.660;2023-03-23T12:40:19;8.10;73.60
76470;DHT22;65305;52.870;13.660;2023-03-23T12:42:58;8.00;73.60
76470;DHT22;65305;52.870;13.660;2023-03-23T12:48:03;8.00;73.50
76470;DHT22;65305;52.870;13.660;2023-03-23T12:53:16;8.00;73.60
76470;DHT22;65305;52.870;13.660;2023-03-23T12:55:45;8.00;73.60
76470;DHT22;65305;52.870;13.660;2023-03-23T12:58:20;8.10;73.60
76470;DHT22;65305;52.870;13.660;2023-03-23T13:00:53;8.10;73.60
76470;DHT22;65305;52.870;13.660;2023-03-23T13:05:53;8.10;73.50
76470;DHT22;65305;52.870;13.660;2023-03-23T13:10:55;8.10;73.50
76470;DHT22;65305;52.870;13.660;2023-03-23T13:13:24;8.10;73.60
76470;DHT22;65305;52.870;13.660;2023-03-23T13:15:57;8.10;73.60
76470;DHT22;65305;52.870;13.660;2023-03-23T13:18:36;8.10;73.60
76470;DHT22;65305;52.870;13.660;2023-03-23T13:21:13;8.10;73.60
76470;DHT22;65305;52.870;13.660;2023-03-23T13:23:49;8.10;73.70
76470;DHT22;65305;52.870;13.660;2023-03-23T13:26:19;8.10;73.50
76470;DHT22;65305;52.870;13.660;2023-03-23T13:31:22;8.10;73.60
76470;DHT22;65305;52.870;13.660;2023-03-23T13:34:38;8.10;73.50
76470;DHT22;65305;52.870;13.660;2023-03-23T13:36:56;8.10;73.50
76470;DHT22;65305;52.870;13.660;2023-03-23T13:39:32;8.10;73.50
76470;DHT22;65305;52.870;13.660;2023-03-23T13:42:05;8.10;73.70
76470;DHT22;65305;52.870;13.660;2023-03-23T13:52:23;8.10;73.90
76470;DHT22;65305;52.870;13.660;2023-03-23T13:54:51;8.10;73.80
76470;DHT22;65305;52.870;13.660;2023-03-23T13:57:20;8.10;74.00
76470;DHT22;65305;52.870;13.660;2023-03-23T13:59:49;8.10;74.00
76470;DHT22;65305;52.870;13.660;2023-03-23T14:02:36;8.10;73.90
76470;DHT22;65305;52.870;13.660;2023-03-23T14:05:23;8.10;73.90
76470;DHT22;65305;52.870;13.660;2023-03-23T14:08:01;8.10;73.90
76470;DHT22;65305;52.870;13.660;2023-03-23T14:10:37;8.10;74.10
76470;DHT22;65305;52.870;13.660;2023-03-23T14:13:05;8.10;73.90
76470;DHT22;65305;52.870;13.660;2023-03-23T14:15:37;8.10;73.80
76470;DHT22;65305;52.870;13.660;2023-03-23T14:18:11;8.10;73.90
76470;DHT22;65305;52.870;13.660;2023-03-23T14:20:39;8.10;73.80
76470;DHT22;65305;52.870;13.660;2023-03-23T14:23:12;8.20;73.80
76470;DHT22;65305;52.870;13.660;2023-03-23T14:25:41;8.10;73.80
76470;DHT22;65305;52.870;13.660;2023-03-23T14:28:18;8.20;73.70
76470;DHT22;65305;52.870;13.660;2023-03-23T14:30:44;8.20;73.70
76470;DHT22;65305;52.870;13.660;2023-03-23T14:33:14;8.20;73.70
76470;DHT22;65305;52.870;13.660;2023-03-23T14:35:41;8.10;73.80
76470;DHT22;65305;52.870;13.660;2023-03-23T14:38:16;8.10;73.80
76470;DHT22;65305;52.870;13.660;2023-03-23T14:40:59;8.10;73.80
76470;DHT22;65305;52.870;13.660;2023-03-23T14:46:41;8.20;73.80
76470;DHT22;65305;52.870;13.660;2023-03-23T15:02:02;8.20;73.70
76470;DHT22;65305;52.870;13.660;2023-03-23T15:04:36;8.20;73.80
76470;DHT22;65305;52.870;13.660;2023-03-23T15:10:25;8.20;73.70
76470;DHT22;65305;52.870;13.660;2023-03-23T15:15:50;8.20;73.70
76470;DHT22;65305;52.870;13.660;2023-03-23T15:31:06;8.20;73.60
76470;DHT22;65305;52.870;13.660;2023-03-23T15:54:30;8.20;73.60
76470;DHT22;65305;52.870;13.660;2023-03-23T15:57:18;8.20;73.70
76470;DHT22;65305;52.870;13.660;2023-03-23T16:00:01;8.20;73.60
76470;DHT22;65305;52.870;13.660;2023-03-23T16:02:32;8.20;73.60
76470;DHT22;65305;52.870;13.660;2023-03-23T16:05:02;8.20;73.70
76470;DHT22;65305;52.870;13.660;2023-03-23T16:10:55;8.20;73.70
76470;DHT22;65305;52.870;13.660;2023-03-23T16:13:37;8.20;73.70
76470;DHT22;65305;52.870;13.660;2023-03-23T16:22:09;8.20;73.70
76470;DHT22;65305;52.870;13.660;2023-03-23T16:27:13;8.30;73.70
76470;DHT22;65305;52.870;13.660;2023-03-23T16:29:40;8.20;73.70
76470;DHT22;65305;52.870;13.660;2023-03-23T16:32:17;8.20;73.70
76470;DHT22;65305;52.870;13.660;2023-03-23T16:34:44;8.30;73.70
76470;DHT22;65305;52.870;13.660;2023-03-23T16:37:14;8.20;73.70
76470;DHT22;65305;52.870;13.660;2023-03-23T16:39:41;8.20;73.80
76470;DHT22;65305;52.870;13.660;2023-03-23T16:42:17;8.20;73.70
76470;DHT22;65305;52.870;13.660;2023-03-23T16:44:54;8.20;73.70
76470;DHT22;65305;52.870;13.660;2023-03-23T16:47:20;8.20;73.80
76470;DHT22;65305;52.870;13.660;2023-03-23T16:49:53;8.20;73.80
76470;DHT22;65305;52.870;13.660;2023-03-23T16:52:20;8.20;73.80
76470;DHT22;65305;52.870;13.660;2023-03-23T16:54:47;8.30;73.80
76470;DHT22;65305;52.870;13.660;2023-03-23T17:00:19;8.20;73.80
76470;DHT22;65305;52.870;13.660;2023-03-23T17:02:53;8.30;73.80
76470;DHT22;65305;52.870;13.660;2023-03-23T17:05:31;8.30;73.80
76470;DHT22;65305;52.870;13.660;2023-03-23T17:08:04;8.30;73.80
76470;DHT22;65305;52.870;13.660;2023-03-23T17:10:57;8.30;73.80
76470;DHT22;65305;52.870;13.660;2023-03-23T17:13:27;8.20;73.90
76470;DHT22;65305;52.870;13.660;2023-03-23T17:16:03;8.30;73.80
76470;DHT22;65305;52.870;13.660;2023-03-23T17:18:51;8.30;73.80
76470;DHT22;65305;52.870;13.660;2023-03-23T17:21:17;8.20;73.80
76470;DHT22;65305;52.870;13.660;2023-03-23T17:23:51;8.30;73.80
76470;DHT22;65305;52.870;13.660;2023-03-23T17:26:24;8.30;73.90
76470;DHT22;65305;52.870;13.660;2023-03-23T17:28:59;8.30;73.90
76470;DHT22;65305;52.870;13.660;2023-03-23T17:31:26;8.30;73.90
76470;DHT22;65305;52.870;13.660;2023-03-23T17:33:52;8.30;73.90
76470;DHT22;65305;52.870;13.660;2023-03-23T17:36:19;8.20;73.90
76470;DHT22;65305;52.870;13.660;2023-03-23T17:38:45;8.30;73.80
76470;DHT22;65305;52.870;13.660;2023-03-23T17:41:12;8.30;73.80
76470;DHT22;65305;52.870;13.660;2023-03-23T17:43:41;8.30;73.80
76470;DHT22;65305;52.870;13.660;2023-03-23T17:46:08;8.30;73.90
76470;DHT22;65305;52.870;13.660;2023-03-23T17:48:35;8.30;73.80
76470;DHT22;65305;52.870;13.660;2023-03-23T17:51:02;8.30;73.90
76470;DHT22;65305;52.870;13.660;2023-03-23T17:53:30;8.30;73.80
76470;DHT22;65305;52.870;13.660;2023-03-23T17:55:56;8.30;73.90
76470;DHT22;65305;52.870;13.660;2023-03-23T17:58:26;8.30;73.80
76470;DHT22;65305;52.870;13.660;2023-03-23T18:00:53;8.30;73.90
76470;DHT22;65305;52.870;13.660;2023-03-23T18:03:21;8.30;73.80
76470;DHT22;65305;52.870;13.660;2023-03-23T18:05:47;8.30;73.80
76470;DHT22;65305;52.870;13.660;2023-03-23T18:08:16;8.30;73.90
76470;DHT22;65305;52.870;13.660;2023-03-23T18:10:47;8.30;73.80
76470;DHT22;65305;52.870;13.660;2023-03-23T18:13:17;8.30;73.80
76470;DHT22;65305;52.870;13.660;2023-03-23T18:15:52;8.30;73.80
76470;DHT22;65305;52.870;13.660;2023-03-23T18:18:25;8.30;73.80
76470;DHT22;65305;52.870;13.660;2023-03-23T18:20:56;8.30;73.90
76470;DHT22;65305;52.870;13.660;2023-03-23T18:23:23;8.30;73.80
76470;DHT22;65305;52.870;13.660;2023-03-23T18:25:50;8.30;73.80
76470;DHT22;65305;52.870;13.660;2023-03-23T18:28:21;8.30;73.80
76470;DHT22;65305;52.870;13.660;2023-03-23T18:30:53;8.30;73.80
76470;DHT22;65305;52.870;13.660;2023-03-23T18:33:55;8.30;73.80
76470;DHT22;65305;52.870;13.660;2023-03-23T18:36:28;8.30;73.80
76470;DHT22;65305;52.870;13.660;2023-03-23T18:38:58;8.30;73.80
76470;DHT22;65305;52.870;13.660;2023-03-23T18:41:27;8.30;73.80
76470;DHT22;65305;52.870;13.660;2023-03-23T18:43:54;8.30;73.80
76470;DHT22;65305;52.870;13.660;2023-03-23T18:46:24;8.30;73.70
76470;DHT22;65305;52.870;13.660;2023-03-23T18:48:50;8.30;73.80
76470;DHT22;65305;52.870;13.660;2023-03-23T18:51:17;8.30;73.80
76470;DHT22;65305;52.870;13.660;2023-03-23T18:53:45;8.30;73.80
76470;DHT22;65305;52.870;13.660;2023-03-23T18:56:13;8.30;73.80
76470;DHT22;65305;52.870;13.660;2023-03-23T18:58:43;8.30;73.80
76470;DHT22;65305;52.870;13.660;2023-03-23T19:01:15;8.30;73.80
76470;DHT22;65305;52.870;13.660;2023-03-23T19:03:42;8.30;73.80
76470;DHT22;65305;52.870;13.660;2023-03-23T19:06:13;8.30;73.70
76470;DHT22;65305;52.870;13.660;2023-03-23T19:08:43;8.30;73.70
76470;DHT22;65305;52.870;13.660;2023-03-23T19:11:13;8.30;73.70
76470;DHT22;65305;52.870;13.660;2023-03-23T19:13:40;8.30;73.70
76470;DHT22;65305;52.870;13.660;2023-03-23T19:16:07;8.30;73.70
76470;DHT22;65305;52.870;13.660;2023-03-23T19:18:33;8.30;73.70
76470;DHT22;65305;52.870;13.660;2023-03-23T19:21:00;8.30;73.70
76470;DHT22;65305;52.870;13.660;2023-03-23T19:23:27;8.30;73.70
76470;DHT22;65305;52.870;13.660;2023-03-23T19:25:59;8.30;73.70
76470;DHT22;65305;52.870;13.660;2023-03-23T19:28:26;8.30;73.70
76470;DHT22;65305;52.870;13.660;2023-03-23T19:30:56;8.30;73.70
76470;DHT22;65305;52.870;13.660;2023-03-23T19:33:27;8.30;73.70
76470;DHT22;65305;52.870;13.660;2023-03-23T19:35:56;8.30;73.70